sensor_id;sensor_type;location;lat;lon;timestamp;P1;durP1;ratioP1;P2;durP2;ratioP2
13660;SDS011;6903;49.480;11.102;2023-03-01T00:01:04;18.57;;;11.77;;
13660;SDS011;6903;49.480;11.102;2023-03-01T00:03:32;17.17;;;11.23;;
13660;SDS011;6903;49.480;11.102;2023-03-01T00:05:58;18.40;;;11.90;;
13660;SDS011;6903;49.480;11.102;2023-03-01T00:08:24;19.07;;;11.47;;
13660;SDS011;6903;49.480;11.102;2023-03-01T00:10:49;19.93;;;11.87;;
13660;SDS011;6903;49.480;11.102;2023-03-01T00:13:24;20.60;;;12.73;;
13660;SDS011;6903;49.480;11.102;2023-03-01T00:15:49;18.90;;;11.83;;
13660;SDS011;6903;49.480;11.102;2023-03-01T00:18:14;17.93;;;11.87;;
13660;SDS011;6903;49.480;11.102;2023-03-01T00:20:40;19.00;;;12.50;;
13660;SDS011;6903;49.480;11.102;2023-03-01T00:23:05;16.47;;;11.30;;
13660;SDS011;6903;49.480;11.102;2023-03-01T00:25:30;19.07;;;11.50;;
13660;SDS011;6903;49.480;11.102;2023-03-01T00:27:56;19.83;;;12.90;;
13660;SDS011;6903;49.480;11.102;2023-03-01T00:30:21;20.37;;;12.00;;
13660;SDS011;6903;49.480;11.102;2023-03-01T00:32:46;17.83;;;11.20;;
13660;SDS011;6903;49.480;11.102;2023-03-01T00:35:11;16.23;;;11.07;;
13660;SDS011;6903;49.480;11.102;2023-03-01T00:37:37;15.77;;;8.87;;
13660;SDS011;6903;49.480;11.102;2023-03-01T00:40:02;19.30;;;11.83;;
13660;SDS011;6903;49.480;11.102;2023-03-01T00:42:31;18.13;;;12.37;;
13660;SDS011;6903;49.480;11.102;2023-03-01T00:44:56;16.93;;;11.53;;
13660;SDS011;6903;49.480;11.102;2023-03-01T00:47:21;18.30;;;10.57;;
13660;SDS011;6903;49.480;11.102;2023-03-01T00:49:47;19.33;;;11.27;;
13660;SDS011;6903;49.480;11.102;2023-03-01T00:52:13;21.90;;;12.70;;
13660;SDS011;6903;49.480;11.102;2023-03-01T00:54:38;19.93;;;12.97;;
13660;SDS011;6903;49.480;11.102;2023-03-01T00:57:03;24.70;;;13.40;;
13660;SDS011;6903;49.480;11.102;2023-03-01T00:59:29;18.40;;;11.90;;
13660;SDS011;6903;49.480;11.102;2023-03-01T01:01:54;20.57;;;13.57;;
13660;SDS011;6903;49.480;11.102;2023-03-01T01:04:19;20.93;;;12.27;;
13660;SDS011;6903;49.480;11.102;2023-03-01T01:06:46;19.63;;;12.60;;
13660;SDS011;6903;49.480;11.102;2023-03-01T01:09:12;19.67;;;12.47;;
13660;SDS011;6903;49.480;11.102;2023-03-01T01:11:42;21.13;;;13.17;;
13660;SDS011;6903;49.480;11.102;2023-03-01T01:14:15;22.20;;;13.43;;
13660;SDS011;6903;49.480;11.102;2023-03-01T01:16:41;23.70;;;13.83;;
13660;SDS011;6903;49.480;11.102;2023-03-01T01:19:07;20.13;;;11.40;;
13660;SDS011;6903;49.480;11.102;2023-03-01T01:21:32;20.30;;;13.23;;
13660;SDS011;6903;49.480;11.102;2023-03-01T01:23:58;21.83;;;12.43;;
13660;SDS011;6903;49.480;11.102;2023-03-01T01:26:25;22.07;;;13.47;;
13660;SDS011;6903;49.480;11.102;2023-03-01T01:28:52;19.60;;;12.70;;
13660;SDS011;6903;49.480;11.102;2023-03-01T01:31:19;19.83;;;12.47;;
13660;SDS011;6903;49.480;11.102;2023-03-01T01:33:45;21.40;;;13.20;;
13660;SDS011;6903;49.480;11.102;2023-03-01T01:36:11;23.57;;;12.67;;
13660;SDS011;6903;49.480;11.102;2023-03-01T01:38:37;22.13;;;13.03;;
13660;SDS011;6903;49.480;11.102;2023-03-01T01:41:03;24.27;;;13.17;;
13660;SDS011;6903;49.480;11.102;2023-03-01T01:43:32;20.17;;;13.40;;
13660;SDS011;6903;49.480;11.102;2023-03-01T01:46:33;23.13;;;13.70;;
13660;SDS011;6903;49.480;11.102;2023-03-01T01:49:07;19.63;;;12.77;;
13660;SDS011;6903;49.480;11.102;2023-03-01T01:51:50;20.40;;;13.53;;
13660;SDS011;6903;49.480;11.102;2023-03-01T01:54:25;19.37;;;12.77;;
13660;SDS011;6903;49.480;11.102;2023-03-01T01:56:56;23.13;;;13.63;;
13660;SDS011;6903;49.480;11.102;2023-03-01T01:59:25;21.63;;;13.40;;
13660;SDS011;6903;49.480;11.102;2023-03-01T02:01:53;20.60;;;12.87;;
13660;SDS011;6903;49.480;11.102;2023-03-01T02:04:19;18.87;;;12.23;;
13660;SDS011;6903;49.480;11.102;2023-03-01T02:06:50;19.93;;;11.87;;
13660;SDS011;6903;49.480;11.102;2023-03-01T02:09:21;23.80;;;13.77;;
13660;SDS011;6903;49.480;11.102;2023-03-01T02:11:48;20.47;;;12.63;;
13660;SDS011;6903;49.480;11.102;2023-03-01T02:14:15;19.70;;;12.13;;
13660;SDS011;6903;49.480;11.102;2023-03-01T02:16:41;21.00;;;10.87;;
13660;SDS011;6903;49.480;11.102;2023-03-01T02:19:07;22.20;;;12.97;;
13660;SDS011;6903;49.480;11.102;2023-03-01T02:26:56;19.53;;;12.23;;
13660;SDS011;6903;49.480;11.102;2023-03-01T02:29:23;23.03;;;12.90;;
13660;SDS011;6903;49.480;11.102;2023-03-01T02:31:49;22.73;;;13.60;;
13660;SDS011;6903;49.480;11.102;2023-03-01T02:34:20;18.13;;;12.33;;
13660;SDS011;6903;49.480;11.102;2023-03-01T02:36:54;20.10;;;13.07;;
13660;SDS011;6903;49.480;11.102;2023-03-01T02:39:30;20.70;;;12.00;;
13660;SDS011;6903;49.480;11.102;2023-03-01T02:42:07;21.53;;;13.23;;
13660;SDS011;6903;49.480;11.102;2023-03-01T02:44:37;24.00;;;13.37;;
13660;SDS011;6903;49.480;11.102;2023-03-01T02:47:03;21.80;;;11.80;;
13660;SDS011;6903;49.480;11.102;2023-03-01T02:49:30;22.10;;;13.23;;
13660;SDS011;6903;49.480;11.102;2023-03-01T02:57:25;22.20;;;12.83;;
13660;SDS011;6903;49.480;11.102;2023-03-01T02:59:52;22.47;;;13.77;;
13660;SDS011;6903;49.480;11.102;2023-03-01T03:02:21;23.67;;;14.10;;
13660;SDS011;6903;49.480;11.102;2023-03-01T03:05:34;22.63;;;13.43;;
13660;SDS011;6903;49.480;11.102;2023-03-01T03:07:54;22.17;;;14.37;;
13660;SDS011;6903;49.480;11.102;2023-03-01T03:10:22;22.47;;;13.90;;
13660;SDS011;6903;49.480;11.102;2023-03-01T03:12:55;22.03;;;12.80;;
13660;SDS011;6903;49.480;11.102;2023-03-01T03:15:23;20.57;;;12.47;;
13660;SDS011;6903;49.480;11.102;2023-03-01T03:17:49;22.37;;;11.97;;
13660;SDS011;6903;49.480;11.102;2023-03-01T03:20:17;23.03;;;13.13;;
13660;SDS011;6903;49.480;11.102;2023-03-01T03:22:47;23.90;;;13.77;;
13660;SDS011;6903;49.480;11.102;2023-03-01T03:25:14;23.23;;;13.27;;
13660;SDS011;6903;49.480;11.102;2023-03-01T03:27:41;19.93;;;12.60;;
13660;SDS011;6903;49.480;11.102;2023-03-01T03:30:10;29.50;;;13.67;;
13660;SDS011;6903;49.480;11.102;2023-03-01T03:32:42;21.43;;;13.50;;
13660;SDS011;6903;49.480;11.102;2023-03-01T03:35:17;21.97;;;13.23;;
13660;SDS011;6903;49.480;11.102;2023-03-01T03:37:47;21.43;;;13.77;;
13660;SDS011;6903;49.480;11.102;2023-03-01T03:40:29;25.10;;;14.03;;
13660;SDS011;6903;49.480;11.102;2023-03-01T03:42:58;21.83;;;13.27;;
13660;SDS011;6903;49.480;11.102;2023-03-01T03:45:23;23.43;;;13.87;;
13660;SDS011;6903;49.480;11.102;2023-03-01T03:47:49;19.83;;;12.30;;
13660;SDS011;6903;49.480;11.102;2023-03-01T03:50:15;19.87;;;12.27;;
13660;SDS011;6903;49.480;11.102;2023-03-01T03:52:41;22.70;;;13.00;;
13660;SDS011;6903;49.480;11.102;2023-03-01T03:55:07;23.07;;;13.63;;
13660;SDS011;6903;49.480;11.102;2023-03-01T03:57:35;21.07;;;13.07;;
13660;SDS011;6903;49.480;11.102;2023-03-01T04:00:01;19.30;;;12.40;;
13660;SDS011;6903;49.480;11.102;2023-03-01T04:02:29;21.80;;;12.93;;
13660;SDS011;6903;49.480;11.102;2023-03-01T04:04:55;21.30;;;13.13;;
13660;SDS011;6903;49.480;11.102;2023-03-01T04:07:20;22.03;;;14.13;;
13660;SDS011;6903;49.480;11.102;2023-03-01T04:09:45;20.87;;;13.47;;
13660;SDS011;6903;49.480;11.102;2023-03-01T04:12:10;20.93;;;13.17;;
13660;SDS011;6903;49.480;11.102;2023-03-01T04:14:36;20.87;;;13.53;;
13660;SDS011;6903;49.480;11.102;2023-03-01T04:17:01;20.50;;;13.63;;
13660;SDS011;6903;49.480;11.102;2023-03-01T04:19:30;31.07;;;16.70;;
13660;SDS011;6903;49.480;11.102;2023-03-01T04:22:01;22.90;;;14.33;;
13660;SDS011;6903;49.480;11.102;2023-03-01T04:24:34;19.83;;;13.40;;
13660;SDS011;6903;49.480;11.102;2023-03-01T04:27:01;24.60;;;14.53;;
13660;SDS011;6903;49.480;11.102;2023-03-01T04:29:27;22.70;;;13.60;;
13660;SDS011;6903;49.480;11.102;2023-03-01T04:31:52;21.27;;;14.20;;
13660;SDS011;6903;49.480;11.102;2023-03-01T04:34:18;24.10;;;14.07;;
13660;SDS011;6903;49.480;11.102;2023-03-01T04:36:43;20.73;;;13.73;;
13660;SDS011;6903;49.480;11.102;2023-03-01T04:39:09;22.03;;;13.53;;
13660;SDS011;6903;49.480;11.102;2023-03-01T04:41:37;23.60;;;13.83;;
13660;SDS011;6903;49.480;11.102;2023-03-01T04:44:04;22.27;;;13.40;;
13660;SDS011;6903;49.480;11.102;2023-03-01T04:46:29;21.17;;;12.80;;
13660;SDS011;6903;49.480;11.102;2023-03-01T04:48:55;19.53;;;13.33;;
13660;SDS011;6903;49.480;11.102;2023-03-01T04:51:20;19.87;;;13.43;;
13660;SDS011;6903;49.480;11.102;2023-03-01T04:53:45;21.77;;;12.77;;
13660;SDS011;6903;49.480;11.102;2023-03-01T04:56:11;20.93;;;12.53;;
13660;SDS011;6903;49.480;11.102;2023-03-01T04:58:38;23.93;;;13.67;;
13660;SDS011;6903;49.480;11.102;2023-03-01T05:01:14;20.50;;;13.40;;
13660;SDS011;6903;49.480;11.102;2023-03-01T05:04:00;21.13;;;14.07;;
13660;SDS011;6903;49.480;11.102;2023-03-01T05:06:27;22.00;;;13.30;;
13660;SDS011;6903;49.480;11.102;2023-03-01T05:08:53;21.97;;;14.50;;
13660;SDS011;6903;49.480;11.102;2023-03-01T05:11:19;23.83;;;13.63;;
13660;SDS011;6903;49.480;11.102;2023-03-01T05:13:44;21.07;;;13.40;;
13660;SDS011;6903;49.480;11.102;2023-03-01T05:16:10;22.37;;;14.43;;
13660;SDS011;6903;49.480;11.102;2023-03-01T05:18:36;23.83;;;13.63;;
13660;SDS011;6903;49.480;11.102;2023-03-01T05:21:03;24.40;;;14.13;;
13660;SDS011;6903;49.480;11.102;2023-03-01T05:23:31;25.80;;;15.90;;
13660;SDS011;6903;49.480;11.102;2023-03-01T05:25:58;23.67;;;14.77;;
13660;SDS011;6903;49.480;11.102;2023-03-01T05:28:24;22.97;;;14.40;;
13660;SDS011;6903;49.480;11.102;2023-03-01T05:30:50;24.33;;;15.70;;
13660;SDS011;6903;49.480;11.102;2023-03-01T05:33:16;22.80;;;15.27;;
13660;SDS011;6903;49.480;11.102;2023-03-01T05:35:42;26.03;;;16.53;;
13660;SDS011;6903;49.480;11.102;2023-03-01T05:38:10;25.00;;;15.53;;
13660;SDS011;6903;49.480;11.102;2023-03-01T05:40:38;26.60;;;16.10;;
13660;SDS011;6903;49.480;11.102;2023-03-01T05:43:04;28.73;;;16.47;;
13660;SDS011;6903;49.480;11.102;2023-03-01T05:45:30;26.13;;;15.67;;
13660;SDS011;6903;49.480;11.102;2023-03-01T05:47:57;26.23;;;15.80;;
13660;SDS011;6903;49.480;11.102;2023-03-01T05:50:24;29.60;;;16.10;;
13660;SDS011;6903;49.480;11.102;2023-03-01T05:52:52;23.77;;;14.50;;
13660;SDS011;6903;49.480;11.102;2023-03-01T05:55:23;24.17;;;15.93;;
13660;SDS011;6903;49.480;11.102;2023-03-01T05:57:48;27.20;;;16.43;;
13660;SDS011;6903;49.480;11.102;2023-03-01T06:00:15;24.57;;;15.43;;
13660;SDS011;6903;49.480;11.102;2023-03-01T06:02:42;25.57;;;15.63;;
13660;SDS011;6903;49.480;11.102;2023-03-01T06:05:08;26.53;;;17.40;;
13660;SDS011;6903;49.480;11.102;2023-03-01T06:07:35;28.03;;;16.70;;
13660;SDS011;6903;49.480;11.102;2023-03-01T06:10:01;23.80;;;15.10;;
13660;SDS011;6903;49.480;11.102;2023-03-01T06:12:29;24.70;;;15.90;;
13660;SDS011;6903;49.480;11.102;2023-03-01T06:14:55;34.60;;;19.97;;
13660;SDS011;6903;49.480;11.102;2023-03-01T06:17:21;32.70;;;19.27;;
13660;SDS011;6903;49.480;11.102;2023-03-01T06:19:46;26.83;;;16.67;;
13660;SDS011;6903;49.480;11.102;2023-03-01T06:22:12;22.27;;;13.80;;
13660;SDS011;6903;49.480;11.102;2023-03-01T06:24:38;25.20;;;16.73;;
13660;SDS011;6903;49.480;11.102;2023-03-01T06:27:03;25.03;;;16.03;;
13660;SDS011;6903;49.480;11.102;2023-03-01T06:29:28;22.50;;;15.10;;
13660;SDS011;6903;49.480;11.102;2023-03-01T06:31:54;23.30;;;15.87;;
13660;SDS011;6903;49.480;11.102;2023-03-01T06:34:19;25.67;;;15.70;;
13660;SDS011;6903;49.480;11.102;2023-03-01T06:36:46;22.10;;;15.70;;
13660;SDS011;6903;49.480;11.102;2023-03-01T06:39:12;25.27;;;14.93;;
13660;SDS011;6903;49.480;11.102;2023-03-01T06:41:37;25.80;;;14.33;;
13660;SDS011;6903;49.480;11.102;2023-03-01T06:44:03;25.73;;;16.07;;
13660;SDS011;6903;49.480;11.102;2023-03-01T06:46:28;22.50;;;14.80;;
13660;SDS011;6903;49.480;11.102;2023-03-01T06:48:53;23.20;;;14.40;;
13660;SDS011;6903;49.480;11.102;2023-03-01T06:51:19;18.93;;;12.07;;
13660;SDS011;6903;49.480;11.102;2023-03-01T06:53:45;21.30;;;13.60;;
13660;SDS011;6903;49.480;11.102;2023-03-01T06:56:11;21.20;;;13.33;;
13660;SDS011;6903;49.480;11.102;2023-03-01T06:58:36;22.50;;;12.37;;
13660;SDS011;6903;49.480;11.102;2023-03-01T07:01:05;21.07;;;12.90;;
13660;SDS011;6903;49.480;11.102;2023-03-01T07:03:31;21.07;;;13.70;;
13660;SDS011;6903;49.480;11.102;2023-03-01T07:05:56;23.13;;;14.03;;
13660;SDS011;6903;49.480;11.102;2023-03-01T07:08:21;21.47;;;13.73;;
13660;SDS011;6903;49.480;11.102;2023-03-01T07:10:47;18.30;;;12.17;;
13660;SDS011;6903;49.480;11.102;2023-03-01T07:13:12;19.47;;;12.77;;
13660;SDS011;6903;49.480;11.102;2023-03-01T07:15:39;25.97;;;14.97;;
13660;SDS011;6903;49.480;11.102;2023-03-01T07:18:05;20.47;;;12.53;;
13660;SDS011;6903;49.480;11.102;2023-03-01T07:20:30;20.53;;;12.40;;
13660;SDS011;6903;49.480;11.102;2023-03-01T07:22:55;17.73;;;11.90;;
13660;SDS011;6903;49.480;11.102;2023-03-01T07:25:23;18.90;;;12.53;;
13660;SDS011;6903;49.480;11.102;2023-03-01T07:27:52;23.33;;;13.30;;
13660;SDS011;6903;49.480;11.102;2023-03-01T07:30:18;17.53;;;12.00;;
13660;SDS011;6903;49.480;11.102;2023-03-01T07:32:44;22.37;;;14.20;;
13660;SDS011;6903;49.480;11.102;2023-03-01T07:35:10;21.83;;;13.53;;
13660;SDS011;6903;49.480;11.102;2023-03-01T07:37:36;20.33;;;13.40;;
13660;SDS011;6903;49.480;11.102;2023-03-01T07:40:01;23.87;;;14.07;;
13660;SDS011;6903;49.480;11.102;2023-03-01T07:42:27;19.70;;;12.77;;
13660;SDS011;6903;49.480;11.102;2023-03-01T07:44:52;20.60;;;13.70;;
13660;SDS011;6903;49.480;11.102;2023-03-01T07:47:17;17.57;;;11.20;;
13660;SDS011;6903;49.480;11.102;2023-03-01T07:49:43;20.17;;;13.40;;
13660;SDS011;6903;49.480;11.102;2023-03-01T07:52:11;20.07;;;13.50;;
13660;SDS011;6903;49.480;11.102;2023-03-01T07:54:37;18.37;;;12.37;;
13660;SDS011;6903;49.480;11.102;2023-03-01T07:57:02;18.67;;;12.87;;
13660;SDS011;6903;49.480;11.102;2023-03-01T07:59:28;18.40;;;11.43;;
13660;SDS011;6903;49.480;11.102;2023-03-01T08:01:55;19.30;;;12.40;;
13660;SDS011;6903;49.480;11.102;2023-03-01T08:04:21;19.53;;;11.83;;
13660;SDS011;6903;49.480;11.102;2023-03-01T08:06:47;18.17;;;12.77;;
13660;SDS011;6903;49.480;11.102;2023-03-01T08:09:12;18.30;;;10.47;;
13660;SDS011;6903;49.480;11.102;2023-03-01T08:11:38;21.63;;;12.27;;
13660;SDS011;6903;49.480;11.102;2023-03-01T08:14:03;14.53;;;9.00;;
13660;SDS011;6903;49.480;11.102;2023-03-01T08:16:28;20.63;;;11.87;;
13660;SDS011;6903;49.480;11.102;2023-03-01T08:18:54;18.53;;;10.67;;
13660;SDS011;6903;49.480;11.102;2023-03-01T08:21:21;16.33;;;10.17;;
13660;SDS011;6903;49.480;11.102;2023-03-01T08:23:47;18.03;;;11.67;;
13660;SDS011;6903;49.480;11.102;2023-03-01T08:26:13;18.30;;;11.63;;
13660;SDS011;6903;49.480;11.102;2023-03-01T08:28:43;20.43;;;13.87;;
13660;SDS011;6903;49.480;11.102;2023-03-01T08:34:01;20.03;;;12.00;;
13660;SDS011;6903;49.480;11.102;2023-03-01T08:36:30;21.37;;;13.07;;
13660;SDS011;6903;49.480;11.102;2023-03-01T08:38:57;22.53;;;13.67;;
13660;SDS011;6903;49.480;11.102;2023-03-01T08:41:23;18.73;;;13.77;;
13660;SDS011;6903;49.480;11.102;2023-03-01T08:43:48;19.23;;;11.20;;
13660;SDS011;6903;49.480;11.102;2023-03-01T08:46:14;19.47;;;10.53;;
13660;SDS011;6903;49.480;11.102;2023-03-01T08:48:39;19.93;;;10.43;;
13660;SDS011;6903;49.480;11.102;2023-03-01T08:51:12;17.80;;;12.17;;
13660;SDS011;6903;49.480;11.102;2023-03-01T08:53:39;19.43;;;12.80;;
13660;SDS011;6903;49.480;11.102;2023-03-01T08:56:05;19.10;;;13.37;;
13660;SDS011;6903;49.480;11.102;2023-03-01T08:58:31;14.40;;;8.97;;
13660;SDS011;6903;49.480;11.102;2023-03-01T09:00:57;19.53;;;12.13;;
13660;SDS011;6903;49.480;11.102;2023-03-01T09:03:23;31.00;;;17.10;;
13660;SDS011;6903;49.480;11.102;2023-03-01T09:05:49;21.13;;;13.13;;
13660;SDS011;6903;49.480;11.102;2023-03-01T09:08:16;23.37;;;14.07;;
13660;SDS011;6903;49.480;11.102;2023-03-01T09:10:41;15.73;;;11.90;;
13660;SDS011;6903;49.480;11.102;2023-03-01T09:13:07;20.77;;;12.77;;
13660;SDS011;6903;49.480;11.102;2023-03-01T09:15:32;16.30;;;10.50;;
13660;SDS011;6903;49.480;11.102;2023-03-01T09:17:58;19.20;;;12.20;;
13660;SDS011;6903;49.480;11.102;2023-03-01T09:20:24;24.20;;;13.00;;
13660;SDS011;6903;49.480;11.102;2023-03-01T09:22:49;19.20;;;11.70;;
13660;SDS011;6903;49.480;11.102;2023-03-01T09:25:14;21.07;;;12.67;;
13660;SDS011;6903;49.480;11.102;2023-03-01T09:27:40;18.70;;;12.60;;
13660;SDS011;6903;49.480;11.102;2023-03-01T09:30:05;20.77;;;13.13;;
13660;SDS011;6903;49.480;11.102;2023-03-01T09:32:31;16.50;;;10.60;;
13660;SDS011;6903;49.480;11.102;2023-03-01T09:34:56;18.50;;;11.00;;
13660;SDS011;6903;49.480;11.102;2023-03-01T09:37:34;22.47;;;12.50;;
13660;SDS011;6903;49.480;11.102;2023-03-01T09:40:01;19.17;;;11.50;;
13660;SDS011;6903;49.480;11.102;2023-03-01T09:42:29;16.60;;;10.63;;
13660;SDS011;6903;49.480;11.102;2023-03-01T09:44:58;18.23;;;13.17;;
13660;SDS011;6903;49.480;11.102;2023-03-01T09:47:28;20.77;;;12.23;;
13660;SDS011;6903;49.480;11.102;2023-03-01T09:52:41;20.00;;;12.73;;
13660;SDS011;6903;49.480;11.102;2023-03-01T09:55:34;20.27;;;11.40;;
13660;SDS011;6903;49.480;11.102;2023-03-01T10:01:10;16.77;;;10.43;;
13660;SDS011;6903;49.480;11.102;2023-03-01T10:06:28;19.70;;;13.53;;
13660;SDS011;6903;49.480;11.102;2023-03-01T10:08:58;16.37;;;10.60;;
13660;SDS011;6903;49.480;11.102;2023-03-01T10:11:31;23.13;;;13.90;;
13660;SDS011;6903;49.480;11.102;2023-03-01T10:14:02;21.97;;;13.03;;
13660;SDS011;6903;49.480;11.102;2023-03-01T10:17:12;18.13;;;11.97;;
13660;SDS011;6903;49.480;11.102;2023-03-01T10:19:39;20.03;;;12.57;;
13660;SDS011;6903;49.480;11.102;2023-03-01T10:22:22;18.90;;;13.37;;
13660;SDS011;6903;49.480;11.102;2023-03-01T10:24:53;20.87;;;13.90;;
13660;SDS011;6903;49.480;11.102;2023-03-01T10:27:29;17.33;;;11.17;;
13660;SDS011;6903;49.480;11.102;2023-03-01T10:30:12;19.47;;;13.10;;
13660;SDS011;6903;49.480;11.102;2023-03-01T10:32:43;21.10;;;14.07;;
13660;SDS011;6903;49.480;11.102;2023-03-01T10:35:16;19.90;;;12.93;;
13660;SDS011;6903;49.480;11.102;2023-03-01T10:37:56;19.70;;;13.70;;
13660;SDS011;6903;49.480;11.102;2023-03-01T10:40:33;20.47;;;13.77;;
13660;SDS011;6903;49.480;11.102;2023-03-01T10:43:01;20.17;;;13.30;;
13660;SDS011;6903;49.480;11.102;2023-03-01T10:48:13;19.83;;;12.73;;
13660;SDS011;6903;49.480;11.102;2023-03-01T10:50:42;24.93;;;15.70;;
13660;SDS011;6903;49.480;11.102;2023-03-01T10:53:24;20.77;;;14.13;;
13660;SDS011;6903;49.480;11.102;2023-03-01T10:56:01;19.07;;;13.37;;
13660;SDS011;6903;49.480;11.102;2023-03-01T10:58:29;20.63;;;13.40;;
13660;SDS011;6903;49.480;11.102;2023-03-01T11:00:59;19.17;;;12.90;;
13660;SDS011;6903;49.480;11.102;2023-03-01T11:03:30;19.13;;;13.53;;
13660;SDS011;6903;49.480;11.102;2023-03-01T11:05:59;16.53;;;11.93;;
13660;SDS011;6903;49.480;11.102;2023-03-01T11:08:41;18.33;;;13.07;;
13660;SDS011;6903;49.480;11.102;2023-03-01T11:13:50;17.57;;;11.93;;
13660;SDS011;6903;49.480;11.102;2023-03-01T11:16:32;18.03;;;13.10;;
13660;SDS011;6903;49.480;11.102;2023-03-01T11:19:12;21.87;;;12.33;;
13660;SDS011;6903;49.480;11.102;2023-03-01T11:21:43;15.43;;;11.93;;
13660;SDS011;6903;49.480;11.102;2023-03-01T11:24:14;17.17;;;12.27;;
13660;SDS011;6903;49.480;11.102;2023-03-01T11:26:43;19.50;;;13.37;;
13660;SDS011;6903;49.480;11.102;2023-03-01T11:29:26;17.93;;;11.60;;
13660;SDS011;6903;49.480;11.102;2023-03-01T11:31:52;18.83;;;12.67;;
13660;SDS011;6903;49.480;11.102;2023-03-01T11:34:23;16.20;;;12.63;;
13660;SDS011;6903;49.480;11.102;2023-03-01T11:36:59;16.47;;;11.63;;
13660;SDS011;6903;49.480;11.102;2023-03-01T11:39:39;17.03;;;11.17;;
13660;SDS011;6903;49.480;11.102;2023-03-01T11:42:30;17.40;;;10.97;;
13660;SDS011;6903;49.480;11.102;2023-03-01T11:45:08;16.63;;;11.87;;
13660;SDS011;6903;49.480;11.102;2023-03-01T11:47:55;17.90;;;12.33;;
13660;SDS011;6903;49.480;11.102;2023-03-01T11:56:09;15.50;;;11.63;;
13660;SDS011;6903;49.480;11.102;2023-03-01T11:58:49;15.87;;;11.60;;
13660;SDS011;6903;49.480;11.102;2023-03-01T12:02:07;15.40;;;11.07;;
13660;SDS011;6903;49.480;11.102;2023-03-01T12:07:30;15.97;;;10.40;;
13660;SDS011;6903;49.480;11.102;2023-03-01T12:10:37;13.63;;;10.33;;
13660;SDS011;6903;49.480;11.102;2023-03-01T12:13:38;14.20;;;11.03;;
13660;SDS011;6903;49.480;11.102;2023-03-01T12:22:11;14.67;;;11.40;;
13660;SDS011;6903;49.480;11.102;2023-03-01T12:27:51;15.60;;;10.03;;
13660;SDS011;6903;49.480;11.102;2023-03-01T12:30:35;17.40;;;11.27;;
13660;SDS011;6903;49.480;11.102;2023-03-01T12:38:33;16.53;;;10.50;;
13660;SDS011;6903;49.480;11.102;2023-03-01T12:44:01;17.67;;;11.00;;
13660;SDS011;6903;49.480;11.102;2023-03-01T12:51:39;14.30;;;10.47;;
13660;SDS011;6903;49.480;11.102;2023-03-01T12:54:15;13.50;;;11.03;;
13660;SDS011;6903;49.480;11.102;2023-03-01T12:56:44;15.47;;;10.30;;
13660;SDS011;6903;49.480;11.102;2023-03-01T12:59:18;12.93;;;9.57;;
13660;SDS011;6903;49.480;11.102;2023-03-01T13:01:57;14.07;;;8.73;;
13660;SDS011;6903;49.480;11.102;2023-03-01T13:07:59;12.90;;;10.20;;
13660;SDS011;6903;49.480;11.102;2023-03-01T13:10:49;14.27;;;10.17;;
13660;SDS011;6903;49.480;11.102;2023-03-01T13:13:21;14.03;;;9.63;;
13660;SDS011;6903;49.480;11.102;2023-03-01T13:15:47;14.20;;;9.50;;
13660;SDS011;6903;49.480;11.102;2023-03-01T13:20:47;14.23;;;9.67;;
13660;SDS011;6903;49.480;11.102;2023-03-01T13:28:40;13.33;;;8.60;;
13660;SDS011;6903;49.480;11.102;2023-03-01T13:33:52;11.27;;;8.87;;
13660;SDS011;6903;49.480;11.102;2023-03-01T13:36:45;16.17;;;10.00;;
13660;SDS011;6903;49.480;11.102;2023-03-01T13:41:49;12.83;;;8.70;;
13660;SDS011;6903;49.480;11.102;2023-03-01T13:46:49;13.63;;;9.27;;
13660;SDS011;6903;49.480;11.102;2023-03-01T13:49:17;16.23;;;10.07;;
13660;SDS011;6903;49.480;11.102;2023-03-01T13:51:47;14.23;;;9.60;;
13660;SDS011;6903;49.480;11.102;2023-03-01T13:54:15;12.47;;;8.87;;
13660;SDS011;6903;49.480;11.102;2023-03-01T13:56:44;12.73;;;8.90;;
13660;SDS011;6903;49.480;11.102;2023-03-01T14:01:40;15.13;;;10.63;;
13660;SDS011;6903;49.480;11.102;2023-03-01T14:09:46;15.00;;;11.30;;
13660;SDS011;6903;49.480;11.102;2023-03-01T14:15:19;15.20;;;10.77;;
13660;SDS011;6903;49.480;11.102;2023-03-01T14:17:53;14.80;;;10.80;;
13660;SDS011;6903;49.480;11.102;2023-03-01T14:20:25;14.37;;;9.60;;
13660;SDS011;6903;49.480;11.102;2023-03-01T14:22:52;14.73;;;10.30;;
13660;SDS011;6903;49.480;11.102;2023-03-01T14:25:24;15.23;;;10.20;;
13660;SDS011;6903;49.480;11.102;2023-03-01T14:28:34;13.63;;;9.33;;
13660;SDS011;6903;49.480;11.102;2023-03-01T14:30:50;15.97;;;10.43;;
13660;SDS011;6903;49.480;11.102;2023-03-01T14:33:18;14.17;;;10.23;;
13660;SDS011;6903;49.480;11.102;2023-03-01T14:36:00;15.30;;;10.10;;
13660;SDS011;6903;49.480;11.102;2023-03-01T14:38:32;15.33;;;9.70;;
13660;SDS011;6903;49.480;11.102;2023-03-01T14:41:29;13.40;;;9.40;;
13660;SDS011;6903;49.480;11.102;2023-03-01T14:44:00;17.13;;;11.73;;
13660;SDS011;6903;49.480;11.102;2023-03-01T14:51:40;15.47;;;10.27;;
13660;SDS011;6903;49.480;11.102;2023-03-01T14:57:14;12.03;;;7.10;;
13660;SDS011;6903;49.480;11.102;2023-03-01T14:59:58;11.53;;;7.73;;
13660;SDS011;6903;49.480;11.102;2023-03-01T15:02:26;13.47;;;9.70;;
13660;SDS011;6903;49.480;11.102;2023-03-01T15:04:56;14.07;;;9.97;;
13660;SDS011;6903;49.480;11.102;2023-03-01T15:07:30;15.57;;;11.03;;
13660;SDS011;6903;49.480;11.102;2023-03-01T15:09:58;14.53;;;11.20;;
13660;SDS011;6903;49.480;11.102;2023-03-01T15:14:56;13.23;;;7.60;;
13660;SDS011;6903;49.480;11.102;2023-03-01T15:17:32;15.77;;;9.67;;
13660;SDS011;6903;49.480;11.102;2023-03-01T15:20:00;11.70;;;8.70;;
13660;SDS011;6903;49.480;11.102;2023-03-01T15:22:28;13.63;;;9.67;;
13660;SDS011;6903;49.480;11.102;2023-03-01T15:24:54;13.27;;;8.17;;
13660;SDS011;6903;49.480;11.102;2023-03-01T15:27:20;13.80;;;9.50;;
13660;SDS011;6903;49.480;11.102;2023-03-01T15:29:52;13.37;;;9.43;;
13660;SDS011;6903;49.480;11.102;2023-03-01T15:32:29;16.43;;;10.13;;
13660;SDS011;6903;49.480;11.102;2023-03-01T15:35:32;12.10;;;8.13;;
13660;SDS011;6903;49.480;11.102;2023-03-01T15:38:02;13.80;;;8.70;;
13660;SDS011;6903;49.480;11.102;2023-03-01T15:40:28;12.73;;;8.03;;
13660;SDS011;6903;49.480;11.102;2023-03-01T15:43:02;14.37;;;10.07;;
13660;SDS011;6903;49.480;11.102;2023-03-01T15:45:30;11.80;;;8.57;;
13660;SDS011;6903;49.480;11.102;2023-03-01T15:48:02;11.90;;;8.03;;
13660;SDS011;6903;49.480;11.102;2023-03-01T15:50:30;15.00;;;8.53;;
13660;SDS011;6903;49.480;11.102;2023-03-01T15:53:00;12.83;;;8.57;;
13660;SDS011;6903;49.480;11.102;2023-03-01T15:55:29;14.20;;;9.83;;
13660;SDS011;6903;49.480;11.102;2023-03-01T16:00:38;13.97;;;9.67;;
13660;SDS011;6903;49.480;11.102;2023-03-01T16:03:04;12.57;;;8.10;;
13660;SDS011;6903;49.480;11.102;2023-03-01T16:05:31;15.17;;;9.67;;
13660;SDS011;6903;49.480;11.102;2023-03-01T16:07:58;13.83;;;8.03;;
13660;SDS011;6903;49.480;11.102;2023-03-01T16:10:23;11.63;;;9.37;;
13660;SDS011;6903;49.480;11.102;2023-03-01T16:12:49;17.20;;;9.50;;
13660;SDS011;6903;49.480;11.102;2023-03-01T16:15:18;15.90;;;10.47;;
13660;SDS011;6903;49.480;11.102;2023-03-01T16:17:46;11.73;;;8.27;;
13660;SDS011;6903;49.480;11.102;2023-03-01T16:20:12;12.53;;;8.07;;